M I D A S
Marine Information and Data Acquisition System
Tripno 780 of the Zeeleeuw from 2004-08-18 07:47:36 to 2004-08-18 11:48:37
Back to CruiseResearch ActivitiesStationsMapUnderway DataData graphs

EquipmentUnitsComments
TimeDGPSUTC
LatitudeDGPSDM.mWGS84
LongitudeDGPSDM.mWGS84
SpeedMeteo Stationm/sRelative wind speed
DirectionMeteo StationdegRelative wind direction
TemperatureMeteo Stationdeg CelciusAir temperature
PressureMeteo StationPaAtmospheric pressure
HumidityMeteo Station%Relative humidity
Missing or incorrect values are displayed as -999
Metereological data collected by the RV Zeeleeuw from 2004-08-18 07:47:36 to 2004-08-18 11:48:37
                                                                                    Next 1000 lines
Time Latitude Longitude Speed Direction Temperature Pressure Humidity
2004-08-18 07:47:44 51°13.596 2°56.114 7.4 106 20.3 100190 75
2004-08-18 07:47:49 51°13.596 2°56.114 6.7 108 20.3 100200 75
2004-08-18 07:47:54 51°13.596 2°56.114 5.1 111 20.3 100200 75
2004-08-18 07:47:59 51°13.596 2°56.114 5 102 20.3 100190 75
2004-08-18 07:48:04 51°13.596 2°56.114 5.8 87 20.3 100190 75
2004-08-18 07:48:09 51°13.596 2°56.114 4.9 87 20.3 100190 75
2004-08-18 07:48:14 51°13.596 2°56.114 4.7 62 20.3 100190 75
2004-08-18 07:48:19 51°13.595 2°56.114 4.2 60 20.4 100190 75
2004-08-18 07:48:24 51°13.595 2°56.114 3.6 87 20.4 100190 75
2004-08-18 07:48:29 51°13.595 2°56.114 4.7 107 20.4 100200 75
2004-08-18 07:48:33 51°13.595 2°56.114 4.6 76 20.4 100200 75
2004-08-18 07:48:39 51°13.595 2°56.114 4.6 65 20.4 100200 75
2004-08-18 07:48:44 51°13.595 2°56.114 6.4 42 20.4 100200 75
2004-08-18 07:48:49 51°13.595 2°56.114 6.2 58 20.4 100200 75
2004-08-18 07:48:53 51°13.595 2°56.114 5.8 52 20.4 100200 75
2004-08-18 07:48:59 51°13.595 2°56.114 5.4 84 20.4 100190 75
2004-08-18 07:49:04 51°13.595 2°56.114 6.8 62 20.4 100190 75
2004-08-18 07:49:08 51°13.595 2°56.114 4.6 80 20.4 100190 75
2004-08-18 07:49:14 51°13.596 2°56.112 6 89 20.4 100190 75
2004-08-18 07:49:17 51°13.596 2°56.111 6.1 77 20.4 100190 75
2004-08-18 07:49:24 51°13.598 2°56.106 5 129 20.4 100190 75
2004-08-18 07:49:29 51°13.599 2°56.102 5.6 89 20.4 100190 75
2004-08-18 07:49:35 51°13.601 2°56.097 3.5 119 20.4 100190 75
2004-08-18 07:49:40 51°13.603 2°56.092 3.1 103 20.4 100180 75
2004-08-18 07:49:44 51°13.604 2°56.088 2.5 89 20.4 100180 75
2004-08-18 07:49:49 51°13.606 2°56.083 3.1 91 20.4 100200 75
2004-08-18 07:49:55 51°13.609 2°56.076 3.4 103 20.4 100200 75
2004-08-18 07:50:00 51°13.611 2°56.07 4 115 20.5 100200 75
2004-08-18 07:50:05 51°13.613 2°56.064 5.3 96 20.5 100200 75
2004-08-18 07:50:08 51°13.614 2°56.06 8.7 99 20.5 100200 75
2004-08-18 07:50:13 51°13.616 2°56.053 8 115 20.5 100200 75
2004-08-18 07:50:19 51°13.618 2°56.044 7.3 124 20.5 100200 75
2004-08-18 07:50:25 51°13.62 2°56.036 5.6 102 20.5 100200 75
2004-08-18 07:50:29 51°13.621 2°56.031 4.7 109 20.5 100200 75
2004-08-18 07:50:33 51°13.621 2°56.028 3.5 82 20.5 100200 75
2004-08-18 07:50:39 51°13.622 2°56.027 6.5 98 20.5 100200 74
2004-08-18 07:50:44 51°13.622 2°56.028 7.7 95 20.5 100200 74
2004-08-18 07:50:49 51°13.622 2°56.03 6.1 103 20.5 100190 74
2004-08-18 07:50:53 51°13.621 2°56.031 8.7 90 20.5 100190 74
2004-08-18 07:50:59 51°13.621 2°56.032 9 95 20.5 100190 74
2004-08-18 07:51:04 51°13.622 2°56.031 6.7 112 20.5 100190 74
2004-08-18 07:51:09 51°13.623 2°56.03 7.8 108 20.5 100190 74
2004-08-18 07:51:15 51°13.624 2°56.026 9.2 131 20.5 100190 74
2004-08-18 07:51:19 51°13.625 2°56.024 8.8 105 20.5 100190 74
2004-08-18 07:51:24 51°13.627 2°56.02 7.3 110 20.5 100190 74
2004-08-18 07:51:30 51°13.629 2°56.014 6.6 102 20.5 100190 74
2004-08-18 07:51:35 51°13.631 2°56.008 4.6 104 20.5 100190 74
2004-08-18 07:51:40 51°13.634 2°56.003 4.1 115 20.5 100190 74
2004-08-18 07:51:45 51°13.636 2°55.997 4.5 97 20.5 100190 74
2004-08-18 07:51:49 51°13.638 2°55.992 3.8 127 20.5 100190 74
2004-08-18 07:51:55 51°13.641 2°55.983 4.7 104 20.5 100190 74
2004-08-18 07:52:00 51°13.644 2°55.976 4.4 108 20.5 100190 74
2004-08-18 07:52:05 51°13.646 2°55.969 4 131 20.5 100190 74
2004-08-18 07:52:10 51°13.649 2°55.961 3.6 122 20.5 100190 74
2004-08-18 07:52:15 51°13.653 2°55.953 3.1 136 20.5 100190 74
2004-08-18 07:52:20 51°13.656 2°55.945 2.7 152 20.5 100200 74
2004-08-18 07:52:25 51°13.659 2°55.937 2.3 148 20.5 100200 74
2004-08-18 07:52:29 51°13.661 2°55.93 2.1 146 20.5 100190 74
2004-08-18 07:52:35 51°13.665 2°55.92 3.1 73 20.5 100190 74
2004-08-18 07:52:40 51°13.668 2°55.911 5.2 118 20.5 100190 74
2004-08-18 07:52:45 51°13.671 2°55.902 2.6 137 20.5 100190 74
2004-08-18 07:52:50 51°13.674 2°55.894 2.6 100 20.5 100190 74
2004-08-18 07:52:55 51°13.677 2°55.886 4.2 112 20.5 100190 74
2004-08-18 07:53:00 51°13.68 2°55.878 5.4 123 20.5 100190 74
2004-08-18 07:53:05 51°13.682 2°55.869 6.5 116 20.5 100190 74
2004-08-18 07:53:09 51°13.684 2°55.863 6.7 119 20.5 100190 74
2004-08-18 07:53:15 51°13.686 2°55.853 6.5 121 20.5 100190 74
2004-08-18 07:53:20 51°13.688 2°55.845 4.5 151 20.5 100190 74
2004-08-18 07:53:25 51°13.69 2°55.837 6.2 156 20.5 100190 74
2004-08-18 07:53:29 51°13.691 2°55.83 3.9 153 20.5 100190 74
2004-08-18 07:53:33 51°13.692 2°55.824 7.4 151 20.5 100190 74
2004-08-18 07:53:40 51°13.694 2°55.813 6 144 20.6 100190 74
2004-08-18 07:53:44 51°13.695 2°55.807 5.8 145 20.6 100190 74
2004-08-18 07:53:49 51°13.695 2°55.8 5.1 148 20.6 100190 74
2004-08-18 07:53:55 51°13.696 2°55.791 7.1 135 20.6 100190 74
2004-08-18 07:53:59 51°13.696 2°55.785 6.3 118 20.6 100190 74
2004-08-18 07:54:04 51°13.696 2°55.778 6.3 126 20.6 100190 74
2004-08-18 07:54:09 51°13.696 2°55.771 6.3 123 20.6 100180 74
2004-08-18 07:54:15 51°13.696 2°55.763 6 133 20.6 100180 74
2004-08-18 07:54:19 51°13.695 2°55.757 5.6 142 20.6 100180 74
2004-08-18 07:54:23 51°13.695 2°55.752 6.1 143 20.6 100180 74
2004-08-18 07:54:29 51°13.694 2°55.746 6.6 149 20.6 100180 74
2004-08-18 07:54:33 51°13.693 2°55.742 6.5 151 20.6 100180 74
2004-08-18 07:54:39 51°13.693 2°55.739 6.7 152 20.6 100180 74
2004-08-18 07:54:44 51°13.693 2°55.738 5.9 136 20.6 100180 74
2004-08-18 07:54:48 51°13.694 2°55.737 5.9 143 20.6 100190 74
2004-08-18 07:54:53 51°13.695 2°55.737 8.8 153 20.6 100190 74
2004-08-18 07:54:59 51°13.697 2°55.737 9.1 159 20.6 100180 74
2004-08-18 07:55:04 51°13.699 2°55.738 4.4 182 20.6 100180 74
2004-08-18 07:55:09 51°13.702 2°55.739 4.6 195 20.6 100180 74
2004-08-18 07:55:14 51°13.705 2°55.739 4.2 250 20.6 100180 74
2004-08-18 07:55:19 51°13.709 2°55.738 4.9 255 20.6 100180 74
2004-08-18 07:55:24 51°13.713 2°55.737 3.2 274 20.6 100180 74
2004-08-18 07:55:28 51°13.717 2°55.734 3.7 279 20.5 100180 74
2004-08-18 07:55:34 51°13.723 2°55.73 3.4 239 20.5 100180 74
2004-08-18 07:55:39 51°13.728 2°55.725 4.7 235 20.6 100190 74
2004-08-18 07:55:44 51°13.733 2°55.721 5.9 260 20.6 100190 74
2004-08-18 07:55:49 51°13.738 2°55.715 6.1 263 20.6 100180 74
2004-08-18 07:55:53 51°13.742 2°55.71 4.2 261 20.6 100180 74
2004-08-18 07:55:59 51°13.75 2°55.703 5 263 20.6 100190 74
2004-08-18 07:56:04 51°13.757 2°55.695 4.7 262 20.6 100190 74
2004-08-18 07:56:08 51°13.762 2°55.689 3.8 254 20.6 100190 74
2004-08-18 07:56:14 51°13.771 2°55.68 4 243 20.6 100190 74
2004-08-18 07:56:16 51°13.774 2°55.677 5.5 226 20.6 100190 74
2004-08-18 07:56:24 51°13.788 2°55.664 6.9 273 20.6 100190 74
2004-08-18 07:56:27 51°13.793 2°55.66 4.2 256 20.6 100190 74
2004-08-18 07:56:33 51°13.804 2°55.65 3.3 230 20.6 100190 74
2004-08-18 07:56:39 51°13.816 2°55.641 2.8 262 20.6 100180 74
2004-08-18 07:56:44 51°13.826 2°55.634 4.1 233 20.6 100180 74
2004-08-18 07:56:48 51°13.834 2°55.628 2.1 225 20.6 100190 74
2004-08-18 07:56:52 51°13.842 2°55.622 2 302 20.6 100190 74
2004-08-18 07:56:59 51°13.857 2°55.611 2.5 345 20.6 100190 74
2004-08-18 07:57:04 51°13.868 2°55.604 2.1 269 20.6 100190 74
2004-08-18 07:57:08 51°13.877 2°55.597 2.1 280 20.6 100180 74
2004-08-18 07:57:12 51°13.885 2°55.591 1.3 124 20.6 100180 74
2004-08-18 07:57:19 51°13.901 2°55.579 1 30 20.6 100180 74
2004-08-18 07:57:24 51°13.912 2°55.571 1 342 20.6 100180 74
2004-08-18 07:57:29 51°13.923 2°55.563 0.7 249 20.6 100190 74
2004-08-18 07:57:32 51°13.93 2°55.558 1.6 281 20.6 100190 74
2004-08-18 07:57:39 51°13.946 2°55.547 1.5 296 20.7 100180 74
2004-08-18 07:57:44 51°13.957 2°55.539 2.6 268 20.7 100180 74
2004-08-18 07:57:48 51°13.967 2°55.533 2.6 278 20.7 100180 74
2004-08-18 07:57:54 51°13.981 2°55.523 2.5 280 20.7 100180 74
2004-08-18 07:57:56 51°13.985 2°55.52 2.5 281 20.7 100190 74
2004-08-18 07:58:04 51°14.004 2°55.508 1.8 290 20.7 100190 74
2004-08-18 07:58:09 51°14.015 2°55.499 1.8 284 20.8 100180 74
2004-08-18 07:58:13 51°14.024 2°55.493 0.7 245 20.8 100180 74
2004-08-18 07:58:20 51°14.04 2°55.481 0.6 208 20.7 100190 74
2004-08-18 07:58:24 51°14.049 2°55.474 1.6 188 20.7 100190 74
2004-08-18 07:58:29 51°14.061 2°55.466 1.1 187 20.8 100190 73
2004-08-18 07:58:32 51°14.068 2°55.461 0.8 186 20.8 100190 73
2004-08-18 07:58:39 51°14.084 2°55.449 0.7 182 20.8 100190 73
2004-08-18 07:58:44 51°14.096 2°55.44 1.3 143 20.8 100190 73
2004-08-18 07:58:48 51°14.105 2°55.433 1.1 116 20.8 100190 73
2004-08-18 07:58:54 51°14.12 2°55.422 0.7 86 20.8 100190 73
2004-08-18 07:58:59 51°14.133 2°55.413 0.7 25 20.8 100180 73
2004-08-18 07:59:04 51°14.146 2°55.404 1.5 357 20.8 100180 73
2004-08-18 07:59:09 51°14.158 2°55.394 1 358 20.8 100180 73
2004-08-18 07:59:13 51°14.169 2°55.385 1.3 236 20.8 100180 73
2004-08-18 07:59:19 51°14.184 2°55.371 3.2 298 20.8 100180 73
2004-08-18 07:59:24 51°14.196 2°55.359 2.8 232 20.8 100180 73
2004-08-18 07:59:29 51°14.208 2°55.347 3.3 296 20.8 100180 73
2004-08-18 07:59:35 51°14.222 2°55.33 2.9 290 20.8 100180 73
2004-08-18 07:59:39 51°14.231 2°55.318 4.2 334 20.8 100180 73
2004-08-18 07:59:44 51°14.241 2°55.302 5.2 282 20.8 100180 73
2004-08-18 07:59:49 51°14.252 2°55.286 4.6 283 20.8 100190 73
2004-08-18 07:59:53 51°14.26 2°55.273 5.2 284 20.8 100190 73
2004-08-18 07:59:59 51°14.273 2°55.253 3.1 323 20.9 100180 73
2004-08-18 08:00:04 51°14.283 2°55.235 3.1 327 20.9 100180 73
2004-08-18 08:00:08 51°14.291 2°55.221 3.6 336 20.9 100180 73
2004-08-18 08:00:13 51°14.301 2°55.203 6.4 327 20.9 100180 73
2004-08-18 08:00:19 51°14.313 2°55.181 6.3 325 20.9 100190 72
2004-08-18 08:00:24 51°14.323 2°55.163 4.9 330 20.9 100190 72
2004-08-18 08:00:29 51°14.333 2°55.144 6.9 328 20.9 100180 72
2004-08-18 08:00:31 51°14.337 2°55.136 4.4 333 20.9 100180 72
2004-08-18 08:00:39 51°14.352 2°55.106 7 353 20.9 100180 72
2004-08-18 08:00:43 51°14.36 2°55.089 8.5 311 20.9 100180 72
2004-08-18 08:00:49 51°14.371 2°55.065 9 229 20.9 100180 72
2004-08-18 08:00:54 51°14.38 2°55.043 9.6 311 20.9 100180 72
2004-08-18 08:00:59 51°14.39 2°55.02 10.1 307 21 100180 72
2004-08-18 08:01:03 51°14.398 2°55.002 8.6 302 21 100180 72
2004-08-18 08:01:08 51°14.407 2°54.978 13.4 309 21 100170 72
2004-08-18 08:01:13 51°14.416 2°54.953 11.4 311 21 100170 72
2004-08-18 08:01:19 51°14.427 2°54.922 11.3 311 21 100170 72
2004-08-18 08:01:24 51°14.434 2°54.895 11.7 311 21 100170 72
2004-08-18 08:01:29 51°14.442 2°54.868 11.5 314 21 100170 73
2004-08-18 08:01:33 51°14.447 2°54.846 12.9 310 21 100170 73
2004-08-18 08:01:39 51°14.455 2°54.812 12.8 308 21 100150 72
2004-08-18 08:01:44 51°14.46 2°54.783 11.3 313 21 100150 72
2004-08-18 08:01:49 51°14.466 2°54.754 11.7 230 21 100170 72
2004-08-18 08:01:54 51°14.471 2°54.725 11.3 315 21 100170 72
2004-08-18 08:01:59 51°14.476 2°54.696 12.3 314 21 100160 72
2004-08-18 08:02:05 51°14.482 2°54.66 11.2 317 21 100160 72
2004-08-18 08:02:09 51°14.485 2°54.636 10.7 316 21 100160 72
2004-08-18 08:02:13 51°14.489 2°54.612 9.8 316 21 100160 72
2004-08-18 08:02:19 51°14.493 2°54.576 10.8 317 21 100160 73
2004-08-18 08:02:24 51°14.495 2°54.546 11.7 322 21 100160 73
2004-08-18 08:02:29 51°14.496 2°54.515 10.6 323 21 100160 72
2004-08-18 08:02:33 51°14.497 2°54.491 12.9 333 21 100160 72
2004-08-18 08:02:39 51°14.498 2°54.454 11.8 323 21 100160 73
2004-08-18 08:02:44 51°14.499 2°54.423 14.2 326 21 100160 73
2004-08-18 08:02:49 51°14.499 2°54.392 15.1 326 20.9 100160 73
2004-08-18 08:02:54 51°14.497 2°54.361 15.9 330 20.9 100160 73
2004-08-18 08:02:59 51°14.494 2°54.331 13.3 327 21 100160 73
2004-08-18 08:03:04 51°14.491 2°54.301 15.4 336 21 100160 73
2004-08-18 08:03:09 51°14.486 2°54.271 16.5 335 20.9 100140 73
2004-08-18 08:03:13 51°14.482 2°54.247 14.7 333 20.9 100140 73
2004-08-18 08:03:19 51°14.474 2°54.213 14.9 335 20.9 100140 72
2004-08-18 08:03:24 51°14.466 2°54.186 17.5 336 20.9 100140 72
2004-08-18 08:03:29 51°14.457 2°54.159 15.2 336 20.9 100140 73
2004-08-18 08:03:35 51°14.445 2°54.128 16.9 338 20.9 100140 73
2004-08-18 08:03:39 51°14.437 2°54.108 17.7 337 20.9 100140 73
2004-08-18 08:03:44 51°14.427 2°54.083 15.8 344 20.9 100140 73
2004-08-18 08:03:49 51°14.416 2°54.057 16.5 338 20.9 100140 73
2004-08-18 08:03:53 51°14.408 2°54.037 16.1 332 20.9 100140 73
2004-08-18 08:03:59 51°14.396 2°54.006 16.3 335 20.9 100130 72
2004-08-18 08:04:04 51°14.385 2°53.98 12.9 342 20.9 100130 72
2004-08-18 08:04:09 51°14.375 2°53.954 14.6 341 20.9 100130 73
2004-08-18 08:04:14 51°14.365 2°53.928 13.9 345 20.9 100130 73
2004-08-18 08:04:19 51°14.355 2°53.901 14.2 341 20.8 100140 72
2004-08-18 08:04:24 51°14.345 2°53.875 13.7 341 20.8 100140 72
2004-08-18 08:04:29 51°14.336 2°53.848 14 344 20.8 100140 72
2004-08-18 08:04:32 51°14.33 2°53.832 13.8 344 20.8 100140 72
2004-08-18 08:04:39 51°14.317 2°53.794 13.9 338 20.8 100150 73
2004-08-18 08:04:44 51°14.308 2°53.767 13.9 342 20.8 100150 73
2004-08-18 08:04:49 51°14.298 2°53.74 14.7 348 20.8 100150 73
2004-08-18 08:04:55 51°14.286 2°53.707 14.5 350 20.8 100150 73
2004-08-18 08:04:59 51°14.278 2°53.686 16.5 349 20.8 100150 73
2004-08-18 08:05:04 51°14.268 2°53.66 17.3 347 20.8 100150 73
2004-08-18 08:05:09 51°14.257 2°53.634 20.8 335 20.8 100140 73
2004-08-18 08:05:15 51°14.244 2°53.603 19.1 336 20.8 100140 73
2004-08-18 08:05:19 51°14.236 2°53.582 14.6 338 20.8 100150 74
2004-08-18 08:05:24 51°14.225 2°53.555 15.3 339 20.8 100150 74
2004-08-18 08:05:29 51°14.215 2°53.529 18 343 20.8 100140 74
2004-08-18 08:05:35 51°14.202 2°53.497 17.9 341 20.8 100140 74
2004-08-18 08:05:39 51°14.194 2°53.476 15.9 342 20.7 100110 72
2004-08-18 08:05:44 51°14.184 2°53.449 17.7 340 20.7 100110 72
2004-08-18 08:05:49 51°14.174 2°53.422 16.5 341 20.8 100130 72
2004-08-18 08:05:51 51°14.17 2°53.411 19.5 342 20.8 100130 72
2004-08-18 08:05:59 51°14.154 2°53.368 18.6 339 20.7 100130 72
2004-08-18 08:06:04 51°14.144 2°53.34 18.4 336 20.7 100130 72
2004-08-18 08:06:09 51°14.134 2°53.313 17.9 339 20.7 100140 72
2004-08-18 08:06:13 51°14.126 2°53.292 18.1 338 20.7 100140 72
2004-08-18 08:06:19 51°14.113 2°53.259 19.2 343 20.7 100140 72
2004-08-18 08:06:23 51°14.105 2°53.238 19 340 20.7 100140 72
2004-08-18 08:06:29 51°14.092 2°53.206 17.9 339 20.7 100130 72
2004-08-18 08:06:34 51°14.081 2°53.18 17.3 344 20.7 100130 72
2004-08-18 08:06:39 51°14.07 2°53.154 17.2 346 20.7 100140 72
2004-08-18 08:06:44 51°14.059 2°53.127 15.9 342 20.7 100140 72
2004-08-18 08:06:49 51°14.048 2°53.101 16.2 339 20.7 100130 72
2004-08-18 08:06:55 51°14.035 2°53.069 18 340 20.7 100130 72
2004-08-18 08:06:59 51°14.027 2°53.048 17.5 338 20.7 100120 71
2004-08-18 08:07:04 51°14.016 2°53.021 16.6 345 20.7 100120 71
2004-08-18 08:07:09 51°14.006 2°52.994 16.2 334 20.7 100140 72
2004-08-18 08:07:15 51°13.994 2°52.962 17.9 334 20.7 100140 72
2004-08-18 08:07:19 51°13.986 2°52.94 17.6 334 20.7 100150 72
2004-08-18 08:07:24 51°13.976 2°52.912 15.8 338 20.7 100150 72
2004-08-18 08:07:29 51°13.966 2°52.885 16.7 345 20.7 100130 72
2004-08-18 08:07:34 51°13.956 2°52.857 17.1 343 20.7 100130 72
2004-08-18 08:07:39 51°13.945 2°52.83 15.9 341 20.7 100140 72
2004-08-18 08:07:44 51°13.935 2°52.803 17 344 20.7 100140 72
2004-08-18 08:07:49 51°13.925 2°52.776 17.4 340 20.7 100140 73
2004-08-18 08:07:53 51°13.916 2°52.754 16.7 344 20.7 100140 73
2004-08-18 08:07:59 51°13.904 2°52.722 17.5 340 20.7 100140 73
2004-08-18 08:08:04 51°13.893 2°52.695 17.7 339 20.7 100140 73
2004-08-18 08:08:09 51°13.882 2°52.668 17 342 20.7 100140 73
2004-08-18 08:08:14 51°13.871 2°52.641 17.3 338 20.7 100140 73
2004-08-18 08:08:19 51°13.86 2°52.615 18.1 334 20.7 100130 73
2004-08-18 08:08:25 51°13.848 2°52.583 17 335 20.7 100130 73
2004-08-18 08:08:29 51°13.839 2°52.562 18.3 344 20.7 100140 73
2004-08-18 08:08:33 51°13.83 2°52.54 18.1 345 20.7 100140 73
2004-08-18 08:08:39 51°13.818 2°52.508 19.3 344 20.7 100140 73
2004-08-18 08:08:44 51°13.807 2°52.481 17.1 342 20.7 100140 73
2004-08-18 08:08:47 51°13.801 2°52.465 19.4 337 20.7 100130 73
2004-08-18 08:08:53 51°13.789 2°52.432 18.5 341 20.7 100130 73
2004-08-18 08:08:59 51°13.777 2°52.399 17.3 342 20.7 100130 73
2004-08-18 08:09:04 51°13.766 2°52.372 18.2 342 20.7 100130 73
2004-08-18 08:09:09 51°13.756 2°52.345 17.7 341 20.7 100130 72
2004-08-18 08:09:12 51°13.75 2°52.329 19 339 20.7 100130 72
2004-08-18 08:09:19 51°13.736 2°52.29 18.7 342 20.7 100130 72
2004-08-18 08:09:24 51°13.726 2°52.263 18 340 20.7 100130 72
2004-08-18 08:09:29 51°13.716 2°52.236 17.2 340 20.7 100130 72
2004-08-18 08:09:34 51°13.705 2°52.209 16.5 343 20.7 100130 72
2004-08-18 08:09:39 51°13.695 2°52.182 15.3 341 20.7 100130 72
2004-08-18 08:09:44 51°13.684 2°52.156 15.6 337 20.7 100130 72
2004-08-18 08:09:49 51°13.673 2°52.129 18.9 339 20.7 100120 72
2004-08-18 08:09:53 51°13.664 2°52.108 19.5 334 20.7 100120 72
2004-08-18 08:09:59 51°13.651 2°52.076 17.1 335 20.7 100130 72
2004-08-18 08:10:04 51°13.64 2°52.049 16.9 336 20.7 100130 72
2004-08-18 08:10:07 51°13.634 2°52.033 16.9 334 20.7 100140 72
2004-08-18 08:10:13 51°13.621 2°52.001 16 334 20.7 100140 72
2004-08-18 08:10:19 51°13.608 2°51.969 15.2 341 20.7 100130 72
2004-08-18 08:10:24 51°13.598 2°51.942 15 337 20.7 100130 72
2004-08-18 08:10:28 51°13.59 2°51.92 14.3 337 20.7 100130 72
2004-08-18 08:10:33 51°13.58 2°51.892 13.8 340 20.7 100130 72
2004-08-18 08:10:39 51°13.567 2°51.86 14.6 344 20.7 100140 73
2004-08-18 08:10:44 51°13.557 2°51.832 14.9 344 20.7 100140 73
2004-08-18 08:10:48 51°13.549 2°51.811 14.9 340 20.7 100150 73
2004-08-18 08:10:53 51°13.538 2°51.784 15.2 343 20.7 100150 73
2004-08-18 08:10:57 51°13.53 2°51.762 15 342 20.7 100150 74
2004-08-18 08:11:04 51°13.514 2°51.725 15.7 345 20.7 100150 74
2004-08-18 08:11:08 51°13.506 2°51.703 14.7 346 20.7 100150 74
2004-08-18 08:11:13 51°13.495 2°51.677 16.3 349 20.7 100150 74
2004-08-18 08:11:19 51°13.482 2°51.645 15.8 345 20.7 100140 74
2004-08-18 08:11:24 51°13.471 2°51.618 16.3 346 20.7 100140 74
2004-08-18 08:11:29 51°13.461 2°51.59 16.4 343 20.7 100150 74
2004-08-18 08:11:33 51°13.453 2°51.569 16.9 345 20.7 100150 74
2004-08-18 08:11:39 51°13.44 2°51.535 16.2 344 20.7 100150 74
2004-08-18 08:11:44 51°13.43 2°51.508 16.5 341 20.7 100150 74
2004-08-18 08:11:49 51°13.421 2°51.48 16.5 339 20.7 100150 74
2004-08-18 08:11:54 51°13.41 2°51.453 16.6 344 20.7 100150 74
2004-08-18 08:11:59 51°13.4 2°51.425 16.6 342 20.7 100130 74
2004-08-18 08:12:04 51°13.39 2°51.398 15.5 344 20.7 100130 74
2004-08-18 08:12:09 51°13.38 2°51.371 15.1 348 20.7 100140 73
2004-08-18 08:12:14 51°13.369 2°51.344 15.6 345 20.7 100140 73
2004-08-18 08:12:16 51°13.364 2°51.333 18.1 352 20.6 100140 73
2004-08-18 08:12:24 51°13.347 2°51.291 17.5 344 20.6 100140 73
2004-08-18 08:12:29 51°13.337 2°51.264 14.7 341 20.6 100140 73
2004-08-18 08:12:34 51°13.326 2°51.237 16.8 345 20.6 100140 73
2004-08-18 08:12:37 51°13.32 2°51.221 17.2 344 20.7 100150 73
2004-08-18 08:12:45 51°13.304 2°51.177 17.4 339 20.7 100150 73
2004-08-18 08:12:49 51°13.296 2°51.155 16.9 341 20.6 100150 73
2004-08-18 08:12:53 51°13.288 2°51.133 15.3 344 20.6 100150 73
2004-08-18 08:12:59 51°13.276 2°51.1 15.1 344 20.6 100150 73
2004-08-18 08:13:05 51°13.264 2°51.067 15.4 343 20.6 100150 73
2004-08-18 08:13:09 51°13.256 2°51.045 17.3 346 20.6 100140 73
2004-08-18 08:13:13 51°13.248 2°51.023 18 350 20.6 100140 73
2004-08-18 08:13:19 51°13.235 2°50.991 17.8 348 20.7 100140 74
2004-08-18 08:13:24 51°13.224 2°50.964 18.1 351 20.7 100140 74
2004-08-18 08:13:29 51°13.214 2°50.937 17.2 348 20.7 100140 74
2004-08-18 08:13:33 51°13.206 2°50.915 16.4 347 20.7 100140 74
2004-08-18 08:13:39 51°13.193 2°50.883 15.7 345 20.7 100140 74
2004-08-18 08:13:44 51°13.183 2°50.855 16.1 340 20.7 100140 74
2004-08-18 08:13:49 51°13.173 2°50.828 17.4 342 20.7 100130 73
2004-08-18 08:13:53 51°13.165 2°50.806 15.6 336 20.7 100130 73
2004-08-18 08:13:59 51°13.153 2°50.773 16.6 336 20.6 100140 73
2004-08-18 08:14:04 51°13.144 2°50.745 16.5 339 20.6 100140 73
2004-08-18 08:14:08 51°13.136 2°50.723 15.7 345 20.6 100150 72
2004-08-18 08:14:15 51°13.124 2°50.683 15.4 345 20.6 100150 72
2004-08-18 08:14:19 51°13.116 2°50.661 16.8 348 20.6 100140 73
2004-08-18 08:14:24 51°13.107 2°50.633 16.1 340 20.6 100140 73
2004-08-18 08:14:28 51°13.1 2°50.61 16.5 340 20.6 100140 72
2004-08-18 08:14:35 51°13.086 2°50.571 14.2 340 20.6 100140 72
2004-08-18 08:14:39 51°13.078 2°50.55 14.3 344 20.7 100150 73
2004-08-18 08:14:44 51°13.068 2°50.522 15 345 20.7 100150 73
2004-08-18 08:14:49 51°13.058 2°50.495 17.9 341 20.7 100150 73
2004-08-18 08:14:54 51°13.048 2°50.467 16.4 336 20.7 100150 73
2004-08-18 08:14:59 51°13.038 2°50.44 15.6 343 20.7 100150 73
2004-08-18 08:15:05 51°13.026 2°50.407 16.5 341 20.7 100150 73
2004-08-18 08:15:08 51°13.02 2°50.391 16.6 344 20.7 100160 74
2004-08-18 08:15:13 51°13.01 2°50.363 16.1 340 20.7 100160 74
2004-08-18 08:15:19 51°12.999 2°50.33 16.5 341 20.7 100140 73
2004-08-18 08:15:24 51°12.989 2°50.302 15.6 347 20.7 100140 73
2004-08-18 08:15:29 51°12.979 2°50.274 17.2 344 20.7 100150 73
2004-08-18 08:15:35 51°12.968 2°50.241 17.7 347 20.7 100150 73
2004-08-18 08:15:39 51°12.96 2°50.219 17.6 340 20.7 100150 73
2004-08-18 08:15:44 51°12.951 2°50.191 16.5 339 20.7 100150 73
2004-08-18 08:15:49 51°12.941 2°50.163 16.3 341 20.7 100150 73
2004-08-18 08:15:53 51°12.934 2°50.141 15.1 337 20.7 100150 73
2004-08-18 08:15:59 51°12.922 2°50.107 13.4 335 20.7 100150 73
2004-08-18 08:16:04 51°12.912 2°50.08 16.4 332 20.7 100150 73
2004-08-18 08:16:09 51°12.903 2°50.052 14.3 336 20.7 100130 72
2004-08-18 08:16:14 51°12.893 2°50.025 16.5 348 20.7 100130 72
2004-08-18 08:16:19 51°12.882 2°49.997 17.2 350 20.7 100140 72
2004-08-18 08:16:24 51°12.872 2°49.97 16.9 348 20.7 100140 72
2004-08-18 08:16:29 51°12.862 2°49.942 16.6 342 20.7 100140 72
2004-08-18 08:16:33 51°12.854 2°49.92 17.4 340 20.7 100140 72
2004-08-18 08:16:39 51°12.843 2°49.887 16.1 342 20.7 100140 73
2004-08-18 08:16:44 51°12.833 2°49.859 15.6 342 20.7 100140 73
2004-08-18 08:16:47 51°12.828 2°49.842 15.7 344 20.7 100140 72
2004-08-18 08:16:54 51°12.814 2°49.802 16.7 350 20.7 100140 72
2004-08-18 08:16:59 51°12.804 2°49.774 16.3 348 20.7 100140 72
2004-08-18 08:17:04 51°12.795 2°49.746 14.7 343 20.7 100140 72
2004-08-18 08:17:09 51°12.785 2°49.718 15.5 348 20.7 100140 72
2004-08-18 08:17:15 51°12.773 2°49.685 15.6 349 20.7 100140 72
2004-08-18 08:17:19 51°12.765 2°49.663 17.7 343 20.7 100140 72
2004-08-18 08:17:24 51°12.755 2°49.635 16.4 341 20.7 100140 72
2004-08-18 08:17:29 51°12.745 2°49.608 16.1 340 20.7 100140 73
2004-08-18 08:17:32 51°12.739 2°49.591 16.4 336 20.7 100140 73
2004-08-18 08:17:39 51°12.725 2°49.553 17.9 344 20.7 100150 73
2004-08-18 08:17:44 51°12.715 2°49.525 17.9 346 20.7 100150 73
2004-08-18 08:17:49 51°12.705 2°49.498 16.9 344 20.7 100130 72
2004-08-18 08:17:54 51°12.695 2°49.47 17.7 342 20.7 100130 72
2004-08-18 08:17:59 51°12.685 2°49.443 17.3 340 20.7 100130 72
2004-08-18 08:18:04 51°12.676 2°49.415 17.7 344 20.7 100130 72
2004-08-18 08:18:09 51°12.666 2°49.387 17.4 342 20.7 100130 72
2004-08-18 08:18:15 51°12.654 2°49.354 15.3 345 20.7 100130 72
2004-08-18 08:18:19 51°12.647 2°49.331 16.9 342 20.7 100130 72
2004-08-18 08:18:24 51°12.638 2°49.303 18 340 20.7 100130 72
2004-08-18 08:18:29 51°12.628 2°49.275 17.1 339 20.7 100130 72
2004-08-18 08:18:35 51°12.617 2°49.242 19 340 20.7 100130 72
2004-08-18 08:18:39 51°12.609 2°49.22 17.3 347 20.7 100130 72
2004-08-18 08:18:44 51°12.6 2°49.192 14.6 341 20.7 100130 72
2004-08-18 08:18:49 51°12.59 2°49.164 16.9 338 20.7 100130 72
2004-08-18 08:18:53 51°12.582 2°49.142 17.4 348 20.7 100130 72
2004-08-18 08:18:59 51°12.571 2°49.109 16.5 340 20.7 100120 72
2004-08-18 08:19:05 51°12.559 2°49.075 16.4 344 20.7 100120 72
2004-08-18 08:19:07 51°12.555 2°49.064 16 344 20.7 100130 73
2004-08-18 08:19:13 51°12.544 2°49.031 16.6 338 20.7 100130 73
2004-08-18 08:19:19 51°12.532 2°48.997 15.5 342 20.7 100130 73
2004-08-18 08:19:23 51°12.525 2°48.975 15.6 347 20.7 100130 73
2004-08-18 08:19:29 51°12.514 2°48.941 16.2 345 20.7 100130 72
2004-08-18 08:19:33 51°12.506 2°48.918 17.7 346 20.7 100130 72
2004-08-18 08:19:39 51°12.495 2°48.885 15.9 340 20.7 100140 72
2004-08-18 08:19:44 51°12.485 2°48.857 18.3 342 20.7 100140 72
2004-08-18 08:19:49 51°12.476 2°48.83 16.6 340 20.7 100140 73
2004-08-18 08:19:54 51°12.466 2°48.802 16.7 336 20.7 100140 73
2004-08-18 08:20:00 51°12.454 2°48.769 16.9 336 20.7 100140 72
2004-08-18 08:20:04 51°12.446 2°48.747 15 339 20.7 100140 72
2004-08-18 08:20:08 51°12.438 2°48.725 15.5 337 20.7 100130 72
2004-08-18 08:20:13 51°12.428 2°48.697 15.6 340 20.7 100130 72
2004-08-18 08:20:19 51°12.417 2°48.664 15.3 345 20.7 100120 71
2004-08-18 08:20:24 51°12.407 2°48.636 16.6 342 20.7 100120 71
2004-08-18 08:20:29 51°12.397 2°48.609 16.8 344 20.7 100120 72
2004-08-18 08:20:34 51°12.388 2°48.581 18.2 340 20.7 100120 72
2004-08-18 08:20:39 51°12.378 2°48.553 18.3 339 20.7 100130 72
2004-08-18 08:20:44 51°12.369 2°48.525 18.9 341 20.7 100130 72
2004-08-18 08:20:49 51°12.359 2°48.498 17.2 340 20.7 100140 73
2004-08-18 08:20:53 51°12.352 2°48.475 17.2 340 20.7 100140 73
2004-08-18 08:20:59 51°12.34 2°48.442 16.4 340 20.7 100130 73
2004-08-18 08:21:04 51°12.331 2°48.414 16.1 339 20.7 100130 73
2004-08-18 08:21:09 51°12.321 2°48.387 16.6 339 20.7 100110 72
2004-08-18 08:21:13 51°12.313 2°48.365 16.3 339 20.7 100110 72
2004-08-18 08:21:19 51°12.301 2°48.332 15.7 342 20.7 100120 73
2004-08-18 08:21:24 51°12.292 2°48.305 16.8 339 20.7 100120 73
2004-08-18 08:21:28 51°12.284 2°48.283 17.6 339 20.7 100120 73
2004-08-18 08:21:33 51°12.274 2°48.255 16.1 338 20.7 100120 73
2004-08-18 08:21:39 51°12.262 2°48.222 15.6 336 20.7 100120 72
2004-08-18 08:21:44 51°12.253 2°48.195 14.7 335 20.7 100120 72
2004-08-18 08:21:48 51°12.245 2°48.173 15.8 341 20.7 100120 73
2004-08-18 08:21:53 51°12.235 2°48.145 14.2 345 20.7 100120 73
2004-08-18 08:21:59 51°12.223 2°48.112 14 346 20.7 100110 72
2004-08-18 08:22:04 51°12.213 2°48.084 16 344 20.7 100110 72
2004-08-18 08:22:09 51°12.203 2°48.057 15.7 342 20.7 100120 73
2004-08-18 08:22:14 51°12.193 2°48.029 14.1 338 20.7 100120 73
2004-08-18 08:22:20 51°12.182 2°47.996 14.8 331 20.7 100120 73
2004-08-18 08:22:24 51°12.174 2°47.974 14.8 330 20.7 100120 73
2004-08-18 08:22:29 51°12.164 2°47.946 15.3 332 20.7 100130 73
2004-08-18 08:22:32 51°12.159 2°47.929 14.5 338 20.7 100130 73
2004-08-18 08:22:39 51°12.145 2°47.89 13.9 341 20.7 100130 73
2004-08-18 08:22:44 51°12.136 2°47.861 14.4 348 20.7 100130 73
2004-08-18 08:22:49 51°12.127 2°47.832 15.1 353 20.7 100130 72
2004-08-18 08:22:53 51°12.119 2°47.81 17.8 344 20.7 100130 72
2004-08-18 08:22:59 51°12.108 2°47.777 15.5 343 20.7 100130 73
2004-08-18 08:23:04 51°12.098 2°47.749 15.9 340 20.7 100130 73
2004-08-18 08:23:09 51°12.088 2°47.721 14.8 342 20.7 100140 73
2004-08-18 08:23:13 51°12.081 2°47.699 15.1 346 20.7 100140 73
2004-08-18 08:23:19 51°12.068 2°47.666 15.7 346 20.7 100140 73
2004-08-18 08:23:24 51°12.058 2°47.639 15.7 336 20.7 100140 73
2004-08-18 08:23:29 51°12.048 2°47.611 15 331 20.7 100130 73
2004-08-18 08:23:34 51°12.039 2°47.583 15.7 330 20.7 100130 73
2004-08-18 08:23:37 51°12.033 2°47.566 14 338 20.7 100130 73
2004-08-18 08:23:44 51°12.02 2°47.526 16.2 341 20.7 100130 73
2004-08-18 08:23:49 51°12.01 2°47.498 16.3 335 20.7 100130 74
2004-08-18 08:23:55 51°11.999 2°47.464 15.6 342 20.7 100130 74
2004-08-18 08:23:59 51°11.992 2°47.442 15.2 336 20.7 100130 74
2004-08-18 08:24:04 51°11.982 2°47.413 13.8 343 20.7 100130 74
2004-08-18 08:24:09 51°11.973 2°47.385 15.7 343 20.7 100130 74
2004-08-18 08:24:13 51°11.965 2°47.363 15.8 342 20.7 100130 74
2004-08-18 08:24:19 51°11.954 2°47.329 16.6 343 20.7 100130 73
2004-08-18 08:24:24 51°11.944 2°47.301 14.5 346 20.7 100130 73
2004-08-18 08:24:29 51°11.934 2°47.273 15.6 341 20.7 100130 74
2004-08-18 08:24:34 51°11.925 2°47.245 15.9 344 20.7 100130 74
2004-08-18 08:24:39 51°11.916 2°47.217 16.8 343 20.7 100140 73
2004-08-18 08:24:44 51°11.906 2°47.189 16.1 340 20.7 100140 73
2004-08-18 08:24:49 51°11.897 2°47.161 17 338 20.7 100130 73
2004-08-18 08:24:53 51°11.89 2°47.139 16.5 339 20.7 100130 73
2004-08-18 08:24:59 51°11.879 2°47.105 18.4 341 20.7 100130 74
2004-08-18 08:25:04 51°11.869 2°47.077 16.2 340 20.7 100130 74
2004-08-18 08:25:09 51°11.86 2°47.049 17.2 341 20.8 100140 74
2004-08-18 08:25:14 51°11.85 2°47.021 18.8 338 20.8 100140 74
2004-08-18 08:25:17 51°11.845 2°47.004 18.4 338 20.7 100140 74
2004-08-18 08:25:24 51°11.831 2°46.965 18.6 343 20.7 100140 74
2004-08-18 08:25:29 51°11.821 2°46.938 17.5 340 20.7 100120 73
2004-08-18 08:25:32 51°11.816 2°46.921 18.3 346 20.7 100120 73
2004-08-18 08:25:39 51°11.802 2°46.883 20 343 20.7 100130 72
2004-08-18 08:25:45 51°11.79 2°46.849 19.3 339 20.7 100130 72
2004-08-18 08:25:49 51°11.783 2°46.827 18.5 338 20.7 100120 72
2004-08-18 08:25:53 51°11.775 2°46.805 18.3 340 20.7 100120 72
2004-08-18 08:25:59 51°11.763 2°46.772 18.6 336 20.7 100120 72
2004-08-18 08:26:04 51°11.754 2°46.744 16.9 341 20.7 100120 72
2004-08-18 08:26:08 51°11.746 2°46.722 19.2 340 20.7 100100 71
2004-08-18 08:26:15 51°11.732 2°46.684 18.9 341 20.7 100100 71
2004-08-18 08:26:19 51°11.723 2°46.663 18.3 345 20.7 100110 71
2004-08-18 08:26:24 51°11.713 2°46.636 19.4 343 20.7 100110 71
2004-08-18 08:26:29 51°11.702 2°46.61 17.2 344 20.7 100130 72
2004-08-18 08:26:34 51°11.691 2°46.584 18.4 341 20.7 100130 72
2004-08-18 08:26:39 51°11.679 2°46.558 17.3 344 20.7 100100 72
2004-08-18 08:26:44 51°11.668 2°46.533 18.7 340 20.7 100100 72
2004-08-18 08:26:49 51°11.656 2°46.508 19.7 340 20.7 100110 72
2004-08-18 08:26:54 51°11.645 2°46.482 16.5 345 20.7 100110 72
2004-08-18 08:26:59 51°11.634 2°46.456 17.4 341 20.7 100130 72
2004-08-18 08:27:04 51°11.623 2°46.43 18.4 346 20.7 100130 72
2004-08-18 08:27:09 51°11.612 2°46.403 18.9 342 20.7 100120 72
2004-08-18 08:27:14 51°11.602 2°46.377 17.2 340 20.7 100120 72
2004-08-18 08:27:17 51°11.595 2°46.36 17.3 339 20.8 100110 72
2004-08-18 08:27:24 51°11.582 2°46.322 17.4 334 20.8 100110 72
2004-08-18 08:27:29 51°11.573 2°46.294 16.8 333 20.7 100120 72
2004-08-18 08:27:32 51°11.568 2°46.277 14.2 334 20.7 100120 72
2004-08-18 08:27:39 51°11.556 2°46.237 16.4 338 20.7 100130 71
2004-08-18 08:27:44 51°11.548 2°46.208 15.7 341 20.7 100130 71
2004-08-18 08:27:48 51°11.541 2°46.185 16.6 336 20.7 100130 72
2004-08-18 08:27:53 51°11.534 2°46.156 17.9 336 20.7 100130 72
2004-08-18 08:27:59 51°11.524 2°46.121 17.8 335 20.7 100130 72
2004-08-18 08:28:04 51°11.517 2°46.092 17 334 20.7 100130 72
2004-08-18 08:28:09 51°11.509 2°46.063 16.9 334 20.7 100130 73
2004-08-18 08:28:12 51°11.504 2°46.046 17.1 337 20.7 100130 73
2004-08-18 08:28:19 51°11.493 2°46.005 17 333 20.7 100120 72
2004-08-18 08:28:24 51°11.485 2°45.977 16.1 338 20.7 100120 72
2004-08-18 08:28:28 51°11.478 2°45.953 17.6 337 20.7 100120 72
2004-08-18 08:28:35 51°11.467 2°45.913 17.6 333 20.7 100120 72
2004-08-18 08:28:39 51°11.46 2°45.89 16.2 334 20.7 100130 72
2004-08-18 08:28:45 51°11.45 2°45.856 16.9 336 20.7 100130 72
2004-08-18 08:28:48 51°11.445 2°45.838 16.7 327 20.7 100120 72
2004-08-18 08:28:52 51°11.439 2°45.815 15.3 340 20.7 100120 72
2004-08-18 08:28:59 51°11.427 2°45.775 16 340 20.7 100130 72
2004-08-18 08:29:04 51°11.419 2°45.746 16.5 342 20.7 100130 72
2004-08-18 08:29:09 51°11.411 2°45.717 17.3 342 20.7 100120 73
2004-08-18 08:29:14 51°11.403 2°45.688 20.2 343 20.7 100120 73
2004-08-18 08:29:18 51°11.396 2°45.665 19.4 342 20.7 100120 73
2004-08-18 08:29:23 51°11.388 2°45.636 18.8 340 20.7 100120 73
2004-08-18 08:29:29 51°11.378 2°45.602 18 340 20.7 100130 73
2004-08-18 08:29:33 51°11.371 2°45.579 17.9 344 20.7 100130 73
2004-08-18 08:29:39 51°11.361 2°45.545 16.5 340 20.7 100130 73
2004-08-18 08:29:44 51°11.353 2°45.516 17.6 346 20.7 100130 73
2004-08-18 08:29:49 51°11.344 2°45.487 17.4 341 20.7 100120 73
2004-08-18 08:29:54 51°11.337 2°45.458 17.3 341 20.7 100120 73
2004-08-18 08:29:59 51°11.328 2°45.43 16.7 345 20.7 100130 73
2004-08-18 08:30:04 51°11.321 2°45.401 18.3 344 20.7 100130 73
2004-08-18 08:30:08 51°11.314 2°45.378 17.4 341 20.7 100120 73
2004-08-18 08:30:13 51°11.306 2°45.349 17.8 341 20.7 100120 73
2004-08-18 08:30:19 51°11.297 2°45.314 19 340 20.7 100130 73
2004-08-18 08:30:24 51°11.289 2°45.285 17.6 343 20.7 100130 73
2004-08-18 08:30:28 51°11.282 2°45.263 17.9 336 20.8 100130 73
2004-08-18 08:30:34 51°11.272 2°45.228 17.8 337 20.8 100130 73
2004-08-18 08:30:39 51°11.264 2°45.2 17.3 337 20.7 100130 73
2004-08-18 08:30:44 51°11.256 2°45.171 17.5 339 20.7 100130 73
2004-08-18 08:30:47 51°11.251 2°45.154 17.3 337 20.8 100130 73
2004-08-18 08:30:55 51°11.238 2°45.108 17.2 336 20.8 100130 73
2004-08-18 08:30:59 51°11.231 2°45.085 17.2 337 20.8 100120 72
2004-08-18 08:31:04 51°11.224 2°45.056 17.5 337 20.8 100120 72
2004-08-18 08:31:09 51°11.216 2°45.027 17.4 336 20.8 100130 72
2004-08-18 08:31:13 51°11.21 2°45.003 15.2 334 20.8 100130 72
2004-08-18 08:31:19 51°11.2 2°44.969 17.5 339 20.8 100110 72
2004-08-18 08:31:24 51°11.193 2°44.94 18.3 340 20.8 100110 72
2004-08-18 08:31:28 51°11.186 2°44.916 16.6 338 20.8 100120 72
2004-08-18 08:31:33 51°11.178 2°44.888 16.6 336 20.8 100120 72
2004-08-18 08:31:39 51°11.168 2°44.853 17.5 338 20.8 100130 73
2004-08-18 08:31:44 51°11.16 2°44.825 15.2 341 20.8 100130 73
2004-08-18 08:31:48 51°11.153 2°44.802 15.3 336 20.8 100120 72
2004-08-18 08:31:55 51°11.141 2°44.762 17 340 20.8 100120 72
2004-08-18 08:31:59 51°11.135 2°44.739 16.4 341 20.8 100130 72
2004-08-18 08:32:04 51°11.126 2°44.711 16.1 342 20.8 100130 72
2004-08-18 08:32:09 51°11.118 2°44.682 15.9 341 20.8 100120 72
2004-08-18 08:32:13 51°11.112 2°44.658 15.9 340 20.8 100120 72
2004-08-18 08:32:19 51°11.103 2°44.624 16.3 335 20.8 100120 72
2004-08-18 08:32:24 51°11.095 2°44.595 13.5 333 20.8 100120 72
2004-08-18 08:32:27 51°11.091 2°44.577 15.4 337 20.8 100120 71
2004-08-18 08:32:33 51°11.081 2°44.542 13.5 339 20.8 100120 71
2004-08-18 08:32:39 51°11.072 2°44.507 14.3 336 20.8 100120 71
2004-08-18 08:32:44 51°11.064 2°44.478 16.1 338 20.8 100120 71
2004-08-18 08:32:49 51°11.055 2°44.45 15.3 341 20.8 100120 72
2004-08-18 08:32:54 51°11.047 2°44.421 13.3 345 20.8 100120 72
2004-08-18 08:32:59 51°11.038 2°44.392 13.9 340 20.9 100120 72
2004-08-18 08:33:03 51°11.032 2°44.369 13.1 334 20.9 100120 72
2004-08-18 08:33:09 51°11.022 2°44.335 14.1 340 20.8 100130 72
2004-08-18 08:33:14 51°11.013 2°44.306 14.9 340 20.8 100130 72
2004-08-18 08:33:19 51°11.005 2°44.277 15.2 341 20.9 100130 72
2004-08-18 08:33:23 51°10.999 2°44.254 15.6 333 20.9 100130 72
2004-08-18 08:33:28 51°10.991 2°44.225 14.7 334 20.9 100130 72
2004-08-18 08:33:33 51°10.983 2°44.196 14.1 330 20.9 100130 72
2004-08-18 08:33:39 51°10.974 2°44.16 14.1 333 20.9 100120 73
2004-08-18 08:33:44 51°10.967 2°44.131 13.6 336 20.9 100120 73
2004-08-18 08:33:49 51°10.959 2°44.102 13.9 345 20.8 100120 72
2004-08-18 08:33:53 51°10.953 2°44.078 15.8 339 20.8 100120 72
2004-08-18 08:33:59 51°10.944 2°44.043 15.4 341 20.9 100120 72
2004-08-18 08:34:04 51°10.936 2°44.015 16.3 336 20.9 100120 72
2004-08-18 08:34:09 51°10.927 2°43.986 15.7 336 20.9 100130 72
2004-08-18 08:34:14 51°10.919 2°43.957 16.6 335 20.9 100130 72
2004-08-18 08:34:19 51°10.911 2°43.928 15.7 334 20.9 100120 72
2004-08-18 08:34:24 51°10.902 2°43.899 15.5 336 20.9 100120 72
2004-08-18 08:34:29 51°10.894 2°43.871 15.9 339 20.8 100120 71
2004-08-18 08:34:32 51°10.889 2°43.854 14.5 345 20.8 100120 71
2004-08-18 08:34:39 51°10.878 2°43.813 14.3 344 20.8 100120 71
2004-08-18 08:34:44 51°10.87 2°43.784 14.8 342 20.8 100120 71
2004-08-18 08:34:49 51°10.862 2°43.755 15.2 344 20.9 100110 71
2004-08-18 08:34:55 51°10.852 2°43.721 15.4 337 20.9 100110 71
2004-08-18 08:34:59 51°10.846 2°43.697 15 334 20.9 100120 71
2004-08-18 08:35:04 51°10.838 2°43.668 15.4 336 20.9 100120 71
2004-08-18 08:35:09 51°10.831 2°43.639 14.8 336 20.9 100130 72
2004-08-18 08:35:13 51°10.825 2°43.615 14.6 332 20.9 100130 72
2004-08-18 08:35:19 51°10.816 2°43.58 16.5 333 20.9 100120 71
2004-08-18 08:35:24 51°10.808 2°43.551 15.3 334 20.9 100120 71
2004-08-18 08:35:28 51°10.802 2°43.527 14.6 335 20.9 100120 70
2004-08-18 08:35:33 51°10.794 2°43.498 14.8 337 20.9 100120 70
2004-08-18 08:35:39 51°10.785 2°43.464 15.1 336 20.9 100120 70
2004-08-18 08:35:44 51°10.776 2°43.435 14 337 20.9 100120 70
2004-08-18 08:35:49 51°10.768 2°43.407 14.2 336 20.9 100120 70
2004-08-18 08:35:51 51°10.764 2°43.395 15.6 334 20.9 100120 70
2004-08-18 08:35:59 51°10.751 2°43.349 16.3 334 20.9 100130 71
2004-08-18 08:36:03 51°10.744 2°43.326 14.5 333 20.9 100130 71
2004-08-18 08:36:09 51°10.735 2°43.291 14.4 336 20.9 100120 70
2004-08-18 08:36:14 51°10.727 2°43.262 14.9 334 20.9 100120 70
2004-08-18 08:36:19 51°10.719 2°43.233 13.5 338 20.9 100120 70
2004-08-18 08:36:23 51°10.713 2°43.209 14.2 334 20.9 100120 70
2004-08-18 08:36:28 51°10.706 2°43.18 14.3 334 20.9 100120 70
2004-08-18 08:36:33 51°10.698 2°43.151 14.1 335 20.9 100120 70
2004-08-18 08:36:39 51°10.689 2°43.116 14.3 336 20.9 100120 70
2004-08-18 08:36:44 51°10.681 2°43.087 15.1 336 20.9 100120 70
2004-08-18 08:36:49 51°10.673 2°43.058 16.1 338 20.9 100120 70
2004-08-18 08:36:53 51°10.666 2°43.035 15.6 344 20.9 100120 70
2004-08-18 08:36:59 51°10.655 2°43.001 15.1 338 20.9 100120 71
2004-08-18 08:37:04 51°10.647 2°42.973 13.8 341 20.9 100120 71
2004-08-18 08:37:09 51°10.638 2°42.944 13.6 342 20.9 100120 71
2004-08-18 08:37:14 51°10.629 2°42.916 14.8 343 20.9 100120 71
2004-08-18 08:37:19 51°10.62 2°42.888 15 341 20.9 100120 71
2004-08-18 08:37:24 51°10.612 2°42.859 14.6 339 20.9 100120 71
2004-08-18 08:37:29 51°10.604 2°42.83 15.1 343 20.9 100130 71
2004-08-18 08:37:32 51°10.6 2°42.812 14.8 342 20.9 100130 71
2004-08-18 08:37:39 51°10.59 2°42.771 14.7 343 20.9 100130 71
2004-08-18 08:37:44 51°10.583 2°42.742 15.6 340 20.9 100130 71
2004-08-18 08:37:49 51°10.576 2°42.713 14.8 340 20.9 100120 71
2004-08-18 08:37:54 51°10.569 2°42.683 16.1 337 20.9 100120 71
2004-08-18 08:37:59 51°10.562 2°42.654 16.5 338 20.9 100130 71
2004-08-18 08:38:04 51°10.555 2°42.624 15.4 338 20.9 100130 71
2004-08-18 08:38:09 51°10.548 2°42.594 16.6 339 20.9 100130 71
2004-08-18 08:38:13 51°10.542 2°42.571 16.1 342 20.9 100130 71
2004-08-18 08:38:19 51°10.533 2°42.536 15.2 342 20.9 100120 71
2004-08-18 08:38:24 51°10.526 2°42.507 16.1 342 20.9 100120 71
2004-08-18 08:38:30 51°10.516 2°42.473 16.7 341 20.9 100120 70
2004-08-18 08:38:35 51°10.508 2°42.444 15.9 342 20.9 100120 70
2004-08-18 08:38:39 51°10.501 2°42.421 15.8 345 20.9 100120 70
2004-08-18 08:38:45 51°10.49 2°42.387 15.8 342 20.9 100120 70
2004-08-18 08:38:49 51°10.483 2°42.365 16.3 345 20.9 100120 70
2004-08-18 08:38:55 51°10.473 2°42.331 15.7 343 20.9 100120 70
2004-08-18 08:38:59 51°10.466 2°42.308 15.4 343 20.9 100120 71
2004-08-18 08:39:04 51°10.458 2°42.28 15.2 341 20.9 100120 71
2004-08-18 08:39:09 51°10.45 2°42.251 15.3 345 20.9 100120 71
2004-08-18 08:39:13 51°10.444 2°42.228 16.3 338 20.9 100120 71
2004-08-18 08:39:19 51°10.435 2°42.192 15.2 339 20.9 100130 70
2004-08-18 08:39:24 51°10.428 2°42.163 15 340 20.9 100130 70
2004-08-18 08:39:29 51°10.422 2°42.134 14.8 339 20.9 100130 71
2004-08-18 08:39:34 51°10.415 2°42.104 13.5 341 20.9 100130 71
2004-08-18 08:39:39 51°10.408 2°42.075 14.7 342 20.9 100130 70
2004-08-18 08:39:44 51°10.401 2°42.045 14.5 341 20.9 100130 70
2004-08-18 08:39:49 51°10.393 2°42.016 15.6 339 20.9 100120 70
2004-08-18 08:39:54 51°10.386 2°41.986 15.7 339 20.9 100120 70
2004-08-18 08:39:59 51°10.378 2°41.958 15.3 338 20.9 100130 70
2004-08-18 08:40:04 51°10.37 2°41.929 15.2 340 20.9 100130 70
2004-08-18 08:40:09 51°10.361 2°41.9 15.9 339 20.9 100130 70
2004-08-18 08:40:15 51°10.351 2°41.867 17.3 336 20.9 100130 70
2004-08-18 08:40:19 51°10.344 2°41.844 16.4 336 20.9 100120 70
2004-08-18 08:40:24 51°10.335 2°41.816 15.3 339 20.9 100120 70
2004-08-18 08:40:29 51°10.326 2°41.787 14.8 331 20.9 100130 70
2004-08-18 08:40:33 51°10.319 2°41.765 14.6 332 20.9 100130 70
2004-08-18 08:40:39 51°10.309 2°41.731 15.6 337 20.9 100120 70
2004-08-18 08:40:44 51°10.302 2°41.702 14.7 328 20.9 100120 70
2004-08-18 08:40:49 51°10.294 2°41.672 13.7 329 20.9 100120 69
2004-08-18 08:40:53 51°10.288 2°41.649 14.3 329 20.9 100120 69
2004-08-18 08:40:59 51°10.28 2°41.613 14.5 326 20.9 100120 69
2004-08-18 08:41:04 51°10.273 2°41.584 14.5 330 20.9 100120 69
2004-08-18 08:41:09 51°10.266 2°41.554 13.9 335 20.9 100130 70
2004-08-18 08:41:14 51°10.26 2°41.524 13.6 339 20.9 100130 70
2004-08-18 08:41:19 51°10.252 2°41.495 13 339 20.9 100130 70
2004-08-18 08:41:24 51°10.245 2°41.466 13.4 340 20.9 100130 70
2004-08-18 08:41:29 51°10.237 2°41.436 13.5 338 20.9 100130 70
2004-08-18 08:41:33 51°10.231 2°41.413 13.4 346 20.9 100130 70
2004-08-18 08:41:39 51°10.221 2°41.379 14.6 345 20.9 100130 71
2004-08-18 08:41:44 51°10.212 2°41.351 16.3 343 20.9 100130 71
2004-08-18 08:41:47 51°10.207 2°41.333 14.3 340 20.9 100130 71
2004-08-18 08:41:55 51°10.193 2°41.288 16.1 343 20.9 100130 71
2004-08-18 08:41:59 51°10.186 2°41.265 15.6 340 21 100130 71
2004-08-18 08:42:04 51°10.177 2°41.237 16.4 331 21 100130 71
2004-08-18 08:42:08 51°10.17 2°41.214 15.3 335 21 100130 71
2004-08-18 08:42:13 51°10.162 2°41.185 16.4 332 21 100130 71
2004-08-18 08:42:19 51°10.153 2°41.15 15.4 340 21 100120 70
2004-08-18 08:42:24 51°10.145 2°41.121 14.4 334 21 100120 70
2004-08-18 08:42:28 51°10.139 2°41.097 14 337 21 100120 71
2004-08-18 08:42:33 51°10.133 2°41.068 16.7 334 21 100120 71
2004-08-18 08:42:37 51°10.127 2°41.044 16.2 335 21 100120 71
2004-08-18 08:42:44 51°10.118 2°41.003 17.7 332 21 100120 71
2004-08-18 08:42:48 51°10.112 2°40.979 16.8 332 21 100130 71
2004-08-18 08:42:52 51°10.107 2°40.955 16.9 335 21 100130 71
2004-08-18 08:42:59 51°10.097 2°40.914 16 337 21 100120 70
2004-08-18 08:43:05 51°10.089 2°40.878 16.2 338 21 100120 70
2004-08-18 08:43:09 51°10.083 2°40.855 16.4 336 21 100120 70
2004-08-18 08:43:14 51°10.075 2°40.826 15.5 332 21 100120 70
2004-08-18 08:43:19 51°10.068 2°40.796 17.2 333 21 100120 70
2004-08-18 08:43:24 51°10.062 2°40.766 15.9 326 21 100120 70
2004-08-18 08:43:29 51°10.057 2°40.736 15.4 323 21 100120 70
2004-08-18 08:43:35 51°10.053 2°40.699 15.5 328 21 100120 70
2004-08-18 08:43:39 51°10.051 2°40.674 16 326 21 100120 70
2004-08-18 08:43:44 51°10.05 2°40.643 14.3 322 21 100120 70
2004-08-18 08:43:49 51°10.049 2°40.612 15.2 319 21 100110 69
2004-08-18 08:43:54 51°10.049 2°40.58 13.9 321 21 100110 69
2004-08-18 08:43:59 51°10.049 2°40.549 14.8 328 21 100120 70
2004-08-18 08:44:04 51°10.048 2°40.518 15.1 319 21 100120 70
2004-08-18 08:44:09 51°10.047 2°40.486 16.4 316 21 100130 70
2004-08-18 08:44:15 51°10.044 2°40.449 15.1 327 21 100130 70
2004-08-18 08:44:19 51°10.041 2°40.424 15.5 323 21 100130 69
2004-08-18 08:44:24 51°10.038 2°40.392 14.9 322 21 100130 69
2004-08-18 08:44:29 51°10.035 2°40.361 16.5 319 21 100120 70
2004-08-18 08:44:32 51°10.032 2°40.343 14 324 21 100120 70
2004-08-18 08:44:39 51°10.027 2°40.299 16.6 325 21 100130 69
2004-08-18 08:44:44 51°10.022 2°40.269 16.5 335 21 100130 69
2004-08-18 08:44:49 51°10.017 2°40.238 16 333 21 100120 69
2004-08-18 08:44:53 51°10.012 2°40.214 14.4 334 21 100120 69
2004-08-18 08:44:59 51°10.005 2°40.178 14.3 339 21 100130 70
2004-08-18 08:45:03 51°10 2°40.154 14.9 345 21 100130 70
2004-08-18 08:45:08 51°9.994 2°40.124 14.2 342 21 100110 70
2004-08-18 08:45:14 51°9.985 2°40.088 15.6 342 21 100110 70
2004-08-18 08:45:19 51°9.978 2°40.059 16.3 340 21 100120 70
2004-08-18 08:45:23 51°9.972 2°40.035 15 340 21 100120 70
2004-08-18 08:45:29 51°9.962 2°40.001 14.5 343 21.1 100130 70
2004-08-18 08:45:34 51°9.954 2°39.972 14.5 340 21.1 100130 70
2004-08-18 08:45:39 51°9.945 2°39.943 14.8 343 21 100130 71
2004-08-18 08:45:44 51°9.937 2°39.915 15.3 344 21 100130 71
2004-08-18 08:45:48 51°9.93 2°39.892 16.2 343 21 100130 71
2004-08-18 08:45:53 51°9.922 2°39.863 16 338 21 100130 71
2004-08-18 08:45:59 51°9.912 2°39.829 17.5 337 21 100130 70
2004-08-18 08:46:04 51°9.904 2°39.8 15.9 335 21 100130 70
2004-08-18 08:46:09 51°9.896 2°39.771 16.4 332 21 100130 70
2004-08-18 08:46:13 51°9.889 2°39.748 13.7 335 21 100130 70
2004-08-18 08:46:19 51°9.88 2°39.713 13.5 337 21 100130 70
2004-08-18 08:46:24 51°9.872 2°39.684 15.5 329 21 100130 70
2004-08-18 08:46:27 51°9.867 2°39.666 15.3 327 21 100110 70
2004-08-18 08:46:35 51°9.855 2°39.62 14 326 21 100110 70
2004-08-18 08:46:39 51°9.848 2°39.597 15.9 329 21 100120 69
2004-08-18 08:46:44 51°9.84 2°39.568 14.7 334 21 100120 69
2004-08-18 08:46:48 51°9.833 2°39.545 13.7 346 21 100130 70
2004-08-18 08:46:52 51°9.827 2°39.522 14.6 343 21 100130 70
2004-08-18 08:46:59 51°9.815 2°39.482 13.9 346 21 100120 70
2004-08-18 08:47:05 51°9.805 2°39.447 18.6 340 21 100120 70
2004-08-18 08:47:09 51°9.798 2°39.424 17.4 341 21.1 100120 70
2004-08-18 08:47:13 51°9.792 2°39.401 18.6 337 21.1 100120 70
2004-08-18 08:47:19 51°9.783 2°39.366 17.8 340 21 100140 70
2004-08-18 08:47:24 51°9.775 2°39.337 17.9 336 21 100140 70
2004-08-18 08:47:29 51°9.767 2°39.308 17.5 339 21 100130 70
2004-08-18 08:47:34 51°9.759 2°39.279 18 340 21 100130 70
2004-08-18 08:47:39 51°9.751 2°39.249 17.6 341 21 100120 69
2004-08-18 08:47:44 51°9.744 2°39.221 17.4 340 21 100120 69
2004-08-18 08:47:47 51°9.739 2°39.203 17.1 338 21 100110 69
2004-08-18 08:47:54 51°9.727 2°39.163 16.5 339 21 100110 69
2004-08-18 08:47:59 51°9.719 2°39.135 16.1 337 21 100110 70
2004-08-18 08:48:04 51°9.711 2°39.106 15.8 334 21 100110 70
2004-08-18 08:48:09 51°9.703 2°39.077 16.7 333 21 100120 69
2004-08-18 08:48:11 51°9.699 2°39.065 15.2 340 21 100120 69
2004-08-18 08:48:19 51°9.687 2°39.019 16 335 21 100130 69
2004-08-18 08:48:24 51°9.679 2°38.99 15.3 333 21 100130 69
2004-08-18 08:48:29 51°9.672 2°38.96 16.2 337 21 100120 69
2004-08-18 08:48:34 51°9.664 2°38.931 15.7 336 21 100120 69
2004-08-18 08:48:39 51°9.657 2°38.902 16.6 334 21 100120 69
2004-08-18 08:48:44 51°9.65 2°38.873 16.1 340 21 100120 69
2004-08-18 08:48:49 51°9.642 2°38.843 17.1 337 21 100120 70
2004-08-18 08:48:54 51°9.634 2°38.814 14.4 337 21 100120 70
2004-08-18 08:48:59 51°9.626 2°38.785 15.7 342 21 100130 70
2004-08-18 08:49:04 51°9.618 2°38.756 14.2 343 21 100130 70
2004-08-18 08:49:09 51°9.609 2°38.727 15.3 345 21 100120 70
2004-08-18 08:49:14 51°9.601 2°38.699 16.6 344 21 100120 70
2004-08-18 08:49:19 51°9.593 2°38.67 15.9 343 21 100120 70
2004-08-18 08:49:24 51°9.585 2°38.641 16 346 21 100120 70
2004-08-18 08:49:29 51°9.577 2°38.612 15.4 344 21 100130 71
2004-08-18 08:49:33 51°9.57 2°38.589 15.1 342 21 100130 71
2004-08-18 08:49:37 51°9.564 2°38.565 14.7 342 21 100130 71
2004-08-18 08:49:44 51°9.553 2°38.524 17.4 344 21 100130 71
2004-08-18 08:49:49 51°9.546 2°38.495 16.4 340 21 100130 70
2004-08-18 08:49:53 51°9.54 2°38.472 15.6 337 21 100130 70
2004-08-18 08:50:00 51°9.529 2°38.43 16 333 21 100140 69
2004-08-18 08:50:05 51°9.522 2°38.401 15.7 336 21 100140 69
2004-08-18 08:50:08 51°9.518 2°38.383 15.1 338 21 100140 70
2004-08-18 08:50:13 51°9.51 2°38.353 14.4 342 21 100140 70
2004-08-18 08:50:19 51°9.501 2°38.318 16.2 343 21 100130 70
2004-08-18 08:50:24 51°9.493 2°38.289 15 332 21 100130 70
2004-08-18 08:50:29 51°9.485 2°38.26 16.1 338 21 100120 70
2004-08-18 08:50:35 51°9.475 2°38.225 16.8 338 21 100120 70
2004-08-18 08:50:39 51°9.469 2°38.202 16.2 334 21 100130 70
2004-08-18 08:50:44 51°9.46 2°38.173 16.6 335 21 100130 70
2004-08-18 08:50:48 51°9.454 2°38.15 16.5 333 21 100130 70
2004-08-18 08:50:53 51°9.446 2°38.121 16.4 331 21 100130 70
2004-08-18 08:50:59 51°9.436 2°38.086 15.5 336 21 100120 71
2004-08-18 08:51:04 51°9.428 2°38.057 17.1 338 21 100120 71
2004-08-18 08:51:09 51°9.42 2°38.028 17.3 337 21 100130 70
2004-08-18 08:51:14 51°9.413 2°37.999 17.5 337 21 100130 70
2004-08-18 08:51:19 51°9.405 2°37.97 16.6 335 21 100120 70
2004-08-18 08:51:24 51°9.397 2°37.941 18.1 339 21 100120 70
2004-08-18 08:51:29 51°9.389 2°37.912 17.7 336 21 100130 71
2004-08-18 08:51:35 51°9.38 2°37.877 17.7 336 21 100130 71
2004-08-18 08:51:39 51°9.373 2°37.854 17 337 21 100130 70
2004-08-18 08:51:44 51°9.365 2°37.826 17.1 335 21 100130 70
2004-08-18 08:51:49 51°9.357 2°37.796 16.6 336 21 100120 70
2004-08-18 08:51:53 51°9.351 2°37.773 15.5 334 21 100120 70
2004-08-18 08:51:59 51°9.342 2°37.738 15 334 21 100120 70
2004-08-18 08:52:04 51°9.334 2°37.709 15.3 332 21 100120 70
2004-08-18 08:52:08 51°9.329 2°37.685 16.2 334 21 100120 69
2004-08-18 08:52:14 51°9.32 2°37.65 15.9 330 21 100120 69
2004-08-18 08:52:20 51°9.312 2°37.614 16.6 331 21 100120 70
2004-08-18 08:52:24 51°9.308 2°37.59 15.9 327 21 100120 70
2004-08-18 08:52:28 51°9.303 2°37.565 15 330 21 100120 70
2004-08-18 08:52:34 51°9.297 2°37.529 15.8 321 21 100120 70
2004-08-18 08:52:39 51°9.293 2°37.5 15.1 324 21 100130 70
2004-08-18 08:52:44 51°9.29 2°37.472 15.7 228 21 100130 70
2004-08-18 08:52:48 51°9.288 2°37.45 14.7 318 21 100120 69
2004-08-18 08:52:53 51°9.286 2°37.424 13.8 38 21 100120 69
2004-08-18 08:52:59 51°9.283 2°37.394 14 325 21 100130 69
2004-08-18 08:53:04 51°9.28 2°37.37 15.2 328 21 100130 69
2004-08-18 08:53:08 51°9.276 2°37.351 15 328 21 100130 69
2004-08-18 08:53:15 51°9.269 2°37.322 13.2 339 21 100130 69
2004-08-18 08:53:19 51°9.264 2°37.306 12.9 335 21 100140 70
2004-08-18 08:53:24 51°9.257 2°37.288 13.1 348 21 100140 70
2004-08-18 08:53:29 51°9.25 2°37.271 13.6 353 21 100140 70
2004-08-18 08:53:35 51°9.24 2°37.256 12.7 4 21 100140 70
2004-08-18 08:53:39 51°9.232 2°37.248 12.5 10 21 100130 70
2004-08-18 08:53:44 51°9.223 2°37.239 12.5 16 21 100130 70
2004-08-18 08:53:48 51°9.216 2°37.235 12.7 25 21 100140 71
2004-08-18 08:53:54 51°9.205 2°37.23 11.3 22 21 100140 71
2004-08-18 08:53:59 51°9.198 2°37.227 11 28 21 100150 70
2004-08-18 08:54:04 51°9.19 2°37.225 12.1 38 21 100150 70
2004-08-18 08:54:08 51°9.185 2°37.224 12.8 40 21 100150 70
2004-08-18 08:54:14 51°9.177 2°37.224 11.2 50 21 100150 70
2004-08-18 08:54:19 51°9.171 2°37.224 11.4 49 21 100140 71
2004-08-18 08:54:25 51°9.164 2°37.226 12.1 53 21 100140 71
2004-08-18 08:54:29 51°9.159 2°37.228 12.1 61 21 100150 70
2004-08-18 08:54:35 51°9.153 2°37.233 8.9 74 21 100150 70
2004-08-18 08:54:39 51°9.149 2°37.237 7.4 80 21 100150 70
2004-08-18 08:54:44 51°9.145 2°37.244 9.6 97 21 100150 70
2004-08-18 08:54:49 51°9.141 2°37.251 9.6 98 21 100150 70
2004-08-18 08:54:52 51°9.139 2°37.255 9.5 110 21 100150 70
2004-08-18 08:54:59 51°9.137 2°37.266 9.7 111 20.9 100150 71
2004-08-18 08:55:04 51°9.136 2°37.274 8.7 114 20.9 100150 71
2004-08-18 08:55:09 51°9.135 2°37.28 7.4 122 20.9 100140 72
2004-08-18 08:55:15 51°9.135 2°37.288 7.3 125 20.9 100140 72
2004-08-18 08:55:19 51°9.135 2°37.292 7.3 120 20.9 100160 72
2004-08-18 08:55:24 51°9.135 2°37.297 9.1 136 20.9 100160 72
2004-08-18 08:55:28 51°9.135 2°37.3 8.2 146 20.9 100160 72
2004-08-18 08:55:34 51°9.135 2°37.302 8.1 137 20.9 100160 72
2004-08-18 08:55:39 51°9.135 2°37.303 7.8 142 20.9 100170 73
2004-08-18 08:55:44 51°9.134 2°37.303 8.4 145 20.9 100170 73
2004-08-18 08:55:48 51°9.134 2°37.302 8.8 143 20.9 100170 73
2004-08-18 08:55:53 51°9.134 2°37.302 8.8 144 20.9 100170 73
2004-08-18 08:55:58 51°9.134 2°37.302 7.6 149 20.9 100170 72
2004-08-18 08:56:04 51°9.134 2°37.302 9 153 20.9 100170 72
2004-08-18 08:56:08 51°9.134 2°37.301 8.9 152 20.9 100180 72
2004-08-18 08:56:13 51°9.134 2°37.301 8.8 145 20.9 100180 72
2004-08-18 08:56:19 51°9.134 2°37.301 9.6 142 20.9 100170 73
2004-08-18 08:56:24 51°9.134 2°37.301 9.4 139 20.9 100170 73
2004-08-18 08:56:29 51°9.134 2°37.301 8.6 143 20.9 100180 73
2004-08-18 08:56:35 51°9.135 2°37.301 9.1 140 20.9 100180 73
2004-08-18 08:56:39 51°9.135 2°37.3 9.9 144 20.9 100180 72
2004-08-18 08:56:44 51°9.135 2°37.3 9.9 135 20.9 100180 72
2004-08-18 08:56:48 51°9.135 2°37.3 9.5 135 20.9 100170 72
2004-08-18 08:56:53 51°9.135 2°37.3 9.9 135 20.9 100170 72
2004-08-18 08:56:59 51°9.135 2°37.3 9 226 20.9 100170 72
2004-08-18 08:57:05 51°9.136 2°37.3 9.1 127 20.9 100170 72
2004-08-18 08:57:09 51°9.136 2°37.3 8.9 131 20.9 100170 71
2004-08-18 08:57:14 51°9.136 2°37.3 9 123 20.9 100170 71
2004-08-18 08:57:19 51°9.136 2°37.3 9.2 120 20.9 100170 72
2004-08-18 08:57:25 51°9.136 2°37.3 10.7 127 20.9 100170 72
2004-08-18 08:57:28 51°9.136 2°37.299 10.1 119 20.9 100170 72
2004-08-18 08:57:33 51°9.136 2°37.299 9.5 119 20.9 100170 72
2004-08-18 08:57:39 51°9.136 2°37.299 9.9 113 20.9 100170 72
2004-08-18 08:57:44 51°9.136 2°37.298 11.2 125 20.9 100170 72
2004-08-18 08:57:49 51°9.136 2°37.298 12.8 124 20.9 100170 72
2004-08-18 08:57:54 51°9.136 2°37.297 13 121 20.9 100170 72
2004-08-18 08:57:57 51°9.136 2°37.297 10.9 113 20.9 100170 71
2004-08-18 08:58:05 51°9.136 2°37.295 13 123 20.9 100170 71
2004-08-18 08:58:08 51°9.136 2°37.295 12.7 131 20.9 100170 71
2004-08-18 08:58:13 51°9.136 2°37.294 11.3 120 20.9 100170 71
2004-08-18 08:58:19 51°9.136 2°37.293 11.5 122 20.9 100160 70
2004-08-18 08:58:24 51°9.136 2°37.292 10.3 120 20.9 100160 70
2004-08-18 08:58:29 51°9.136 2°37.291 11.2 109 20.9 100160 69
2004-08-18 08:58:33 51°9.136 2°37.29 11.5 111 20.9 100160 69
2004-08-18 08:58:39 51°9.136 2°37.289 10.2 111 20.9 100160 70
2004-08-18 08:58:44 51°9.136 2°37.287 11.1 112 20.9 100160 70
2004-08-18 08:58:49 51°9.136 2°37.286 11.4 113 20.9 100170 70
2004-08-18 08:58:55 51°9.136 2°37.284 10.4 106 20.9 100170 70
2004-08-18 08:58:59 51°9.136 2°37.283 10.4 111 20.9 100170 70
2004-08-18 08:59:04 51°9.136 2°37.282 9.8 113 20.9 100170 70
2004-08-18 08:59:09 51°9.136 2°37.28 11.1 110 20.9 100170 70
2004-08-18 08:59:13 51°9.136 2°37.279 10.5 107 20.9 100170 70
2004-08-18 08:59:19 51°9.136 2°37.277 11.2 110 20.9 100170 70
2004-08-18 08:59:23 51°9.136 2°37.276 10.9 107 20.9 100170 70
2004-08-18 08:59:29 51°9.137 2°37.274 11.4 105 20.9 100170 69
2004-08-18 08:59:35 51°9.137 2°37.273 10.9 109 20.9 100170 69
2004-08-18 08:59:39 51°9.137 2°37.272 10.9 108 20.9 100170 70
2004-08-18 08:59:45 51°9.137 2°37.27 11 102 20.9 100170 70
2004-08-18 08:59:49 51°9.137 2°37.269 10 102 21 100170 70
2004-08-18 08:59:55 51°9.137 2°37.268 10.8 101 21 100170 70
2004-08-18 08:59:59 51°9.137 2°37.267 10.4 111 20.9 100170 70
2004-08-18 09:00:04 51°9.137 2°37.266 10.5 106 20.9 100170 70
2004-08-18 09:00:09 51°9.137 2°37.266 10.9 107 21 100170 70
2004-08-18 09:00:15 51°9.137 2°37.265 9.9 102 21 100170 70
2004-08-18 09:00:19 51°9.137 2°37.264 9.8 104 21 100160 70
2004-08-18 09:00:24 51°9.136 2°37.263 10.4 106 21 100160 70
2004-08-18 09:00:29 51°9.136 2°37.263 10.7 107 21 100160 69
2004-08-18 09:00:33 51°9.136 2°37.262 12.4 109 21 100160 69
2004-08-18 09:00:39 51°9.136 2°37.262 11.9 106 21 100170 70
2004-08-18 09:00:44 51°9.136 2°37.261 12.2 111 21 100170 70
2004-08-18 09:00:49 51°9.135 2°37.261 11.6 107 21 100170 69
2004-08-18 09:00:55 51°9.135 2°37.26 12.1 104 21 100170 69
2004-08-18 09:00:59 51°9.135 2°37.26 11.7 96 21 100170 69
2004-08-18 09:01:04 51°9.135 2°37.26 12.1 101 21 100170 69
2004-08-18 09:01:10 51°9.135 2°37.26 11.6 101 21 100170 69
2004-08-18 09:01:14 51°9.135 2°37.26 11 102 21 100170 69
2004-08-18 09:01:19 51°9.135 2°37.26 11 101 21 100160 69
2004-08-18 09:01:24 51°9.135 2°37.26 11.5 101 21 100160 69
2004-08-18 09:01:27 51°9.134 2°37.26 10.1 100 21 100160 69
2004-08-18 09:01:35 51°9.134 2°37.26 10.5 108 21 100160 69
2004-08-18 09:01:39 51°9.133 2°37.26 10.7 106 21 100170 69
2004-08-18 09:01:44 51°9.133 2°37.26 11 106 21 100170 69
2004-08-18 09:01:49 51°9.133 2°37.26 11.4 100 21 100170 69
2004-08-18 09:01:54 51°9.133 2°37.26 11.3 111 21 100170 69
2004-08-18 09:01:59 51°9.133 2°37.26 12.4 108 21 100160 69
2004-08-18 09:02:04 51°9.133 2°37.26 11.4 108 21 100160 69
2004-08-18 09:02:09 51°9.133 2°37.261 11.3 111 21 100170 69
2004-08-18 09:02:13 51°9.133 2°37.261 10.5 110 21 100170 69
2004-08-18 09:02:20 51°9.132 2°37.262 10.4 115 21 100170 69
2004-08-18 09:02:23 51°9.132 2°37.262 10.6 107 21 100170 69
2004-08-18 09:02:29 51°9.132 2°37.263 10.3 106 21 100170 68
2004-08-18 09:02:34 51°9.132 2°37.263 10.4 106 21 100170 68
2004-08-18 09:02:39 51°9.132 2°37.264 11.1 94 21 100170 69
2004-08-18 09:02:44 51°9.131 2°37.264 10.9 96 21 100170 69
2004-08-18 09:02:49 51°9.131 2°37.265 11.2 102 21 100170 70
2004-08-18 09:02:55 51°9.131 2°37.265 11.3 106 21 100170 70
2004-08-18 09:02:59 51°9.131 2°37.266 11 106 21.1 100170 70
2004-08-18 09:03:05 51°9.13 2°37.266 11.8 109 21.1 100170 70
2004-08-18 09:03:09 51°9.13 2°37.267 11.4 105 21.1 100170 70
2004-08-18 09:03:15 51°9.13 2°37.267 11.7 105 21.1 100170 70
2004-08-18 09:03:19 51°9.13 2°37.267 11.7 110 21 100170 69
2004-08-18 09:03:25 51°9.129 2°37.268 11.1 105 21 100170 69
2004-08-18 09:03:29 51°9.129 2°37.268 11 106 21.1 100160 70
2004-08-18 09:03:34 51°9.129 2°37.268 11.2 107 21.1 100160 70
2004-08-18 09:03:39 51°9.129 2°37.268 11 102 21 100170 70
2004-08-18 09:03:44 51°9.128 2°37.269 10.6 104 21 100170 70
2004-08-18 09:03:49 51°9.128 2°37.269 10.9 108 21 100170 69
2004-08-18 09:03:54 51°9.127 2°37.269 10.8 101 21 100170 69
2004-08-18 09:03:59 51°9.127 2°37.269 10.8 104 21.1 100160 69
2004-08-18 09:04:05 51°9.127 2°37.269 10.5 99 21.1 100160 69
2004-08-18 09:04:09 51°9.126 2°37.269 9.7 106 21.1 100170 70
2004-08-18 09:04:14 51°9.126 2°37.269 9.2 101 21.1 100170 70
2004-08-18 09:04:20 51°9.126 2°37.269 10.8 104 21 100170 70
2004-08-18 09:04:25 51°9.125 2°37.269 9.4 116 21 100170 70
2004-08-18 09:04:27 51°9.125 2°37.269 9.9 106 21.1 100170 70
2004-08-18 09:04:36 51°9.124 2°37.269 9.9 102 21.1 100170 70
2004-08-18 09:04:41 51°9.124 2°37.269 9.7 101 21.1 100170 71
2004-08-18 09:04:47 51°9.124 2°37.269 10.4 107 21.1 100170 71
2004-08-18 09:04:52 51°9.123 2°37.269 11.3 103 21.1 100170 71
2004-08-18 09:04:56 51°9.123 2°37.269 11.4 101 21.1 100170 71
2004-08-18 09:05:01 51°9.123 2°37.269 10.3 106 21.1 100170 71
2004-08-18 09:05:07 51°9.122 2°37.269 10.9 111 21.1 100170 71
2004-08-18 09:05:15 51°9.122 2°37.268 9.8 110 21.1 100170 71
2004-08-18 09:05:20 51°9.121 2°37.268 9.8 110 21.1 100170 71
2004-08-18 09:05:25 51°9.121 2°37.268 9.8 110 21.1 100170 71
2004-08-18 09:05:29 51°9.121 2°37.268 9.8 110 21.1 100170 71
2004-08-18 09:05:33 51°9.12 2°37.268 9.8 110 21.1 100170 71
2004-08-18 09:05:37 51°9.12 2°37.268 9.8 110 21.1 100170 71
2004-08-18 09:05:41 51°9.12 2°37.268 -999 -999 -999 -999 -999
2004-08-18 09:06:16 51°9.117 2°37.266 10.7 99 20.9 -999 68
2004-08-18 09:06:22 51°9.116 2°37.266 9.6 99 20.9 -999 68
2004-08-18 09:06:26 51°9.116 2°37.265 10.2 101 21.1 -999 70
2004-08-18 09:06:31 51°9.115 2°37.265 10 96 21.1 -999 70
2004-08-18 09:06:36 51°9.115 2°37.265 10.3 104 21.1 100170 70
2004-08-18 09:06:41 51°9.115 2°37.265 9.3 104 21.1 100170 70
2004-08-18 09:06:46 51°9.114 2°37.264 10.3 105 21.1 100170 70
2004-08-18 09:06:52 51°9.114 2°37.264 9.6 100 21.1 100170 70
2004-08-18 09:06:56 51°9.114 2°37.264 10.4 100 21.1 100170 70
2004-08-18 09:07:01 51°9.113 2°37.263 10 101 21.1 100170 70
2004-08-18 09:07:07 51°9.113 2°37.263 9.8 109 21.1 100180 70
2004-08-18 09:07:11 51°9.112 2°37.263 9 104 21.1 100180 70
2004-08-18 09:07:16 51°9.112 2°37.262 9.2 99 21.1 100170 70
2004-08-18 09:07:20 51°9.111 2°37.262 7.7 105 21.1 100170 70
2004-08-18 09:07:25 51°9.111 2°37.262 9 112 21.1 100170 70
2004-08-18 09:07:29 51°9.11 2°37.261 9.6 102 21.1 100170 70
2004-08-18 09:07:36 51°9.11 2°37.261 9.1 98 21.1 100170 71
2004-08-18 09:07:41 51°9.109 2°37.261 8.6 100 21.1 100170 71
2004-08-18 09:07:47 51°9.109 2°37.26 8.7 95 21.1 100170 71
2004-08-18 09:07:52 51°9.108 2°37.26 8.7 98 21.1 100170 71
2004-08-18 09:07:55 51°9.108 2°37.26 9.4 105 21.1 100170 70
2004-08-18 09:08:00 51°9.108 2°37.259 10.3 101 21.1 100170 70
2004-08-18 09:08:05 51°9.107 2°37.259 10.5 103 21.1 100170 71
2004-08-18 09:08:11 51°9.107 2°37.259 10.4 95 21.1 100170 71
2004-08-18 09:08:16 51°9.106 2°37.258 9.8 106 21.1 100170 71
2004-08-18 09:08:20 51°9.106 2°37.258 9.8 103 21.1 100170 71
2004-08-18 09:08:25 51°9.105 2°37.257 10 101 21.1 100180 71
2004-08-18 09:08:31 51°9.105 2°37.257 9.8 103 21.1 100180 71
2004-08-18 09:08:37 51°9.104 2°37.256 9.7 107 21.1 100170 71
2004-08-18 09:08:41 51°9.104 2°37.256 10.1 102 21.1 100170 71
2004-08-18 09:08:45 51°9.104 2°37.256 9.6 99 21.1 100160 71
2004-08-18 09:08:48 51°9.103 2°37.255 8.6 104 21.1 100160 71
2004-08-18 09:08:56 51°9.103 2°37.255 9.2 99 21.1 100170 69
2004-08-18 09:09:00 51°9.102 2°37.254 9.1 101 21.1 100170 69
2004-08-18 09:09:06 51°9.102 2°37.254 9.7 99 21 100170 69
2004-08-18 09:09:10 51°9.101 2°37.253 8.9 100 21 100170 69
2004-08-18 09:09:16 51°9.101 2°37.253 8.5 97 21.1 100170 69
2004-08-18 09:09:20 51°9.1 2°37.253 7.4 96 21.1 100170 69
2004-08-18 09:09:26 51°9.1 2°37.252 7.9 98 21.1 100170 69
2004-08-18 09:09:32 51°9.099 2°37.252 8.5 95 21.1 100170 69
2004-08-18 09:09:35 51°9.099 2°37.252 8.5 95 21.1 100170 69
2004-08-18 09:09:40 51°9.098 2°37.251 8.6 97 21.1 100170 69
2004-08-18 09:09:45 51°9.098 2°37.251 7.8 95 21.1 100170 70
2004-08-18 09:09:51 51°9.097 2°37.251 8.1 93 21.1 100170 70
2004-08-18 09:09:56 51°9.096 2°37.251 10.1 100 21.1 100170 71
2004-08-18 09:10:01 51°9.096 2°37.251 10.1 88 21.1 100170 71
2004-08-18 09:10:04 51°9.096 2°37.25 10.3 99 21.1 100170 70
2004-08-18 09:10:12 51°9.095 2°37.25 10.5 96 21.1 100170 70
2004-08-18 09:10:15 51°9.095 2°37.25 10.3 94 21.1 100170 70
2004-08-18 09:10:21 51°9.094 2°37.25 9.4 98 21.1 100170 70
2004-08-18 09:10:26 51°9.094 2°37.25 9.3 92 21.1 100170 70
2004-08-18 09:10:32 51°9.093 2°37.25 9.8 99 21.1 100170 70
2004-08-18 09:10:35 51°9.093 2°37.25 10 98 21.1 100160 69
2004-08-18 09:10:40 51°9.093 2°37.25 10.2 92 21.1 100160 69
2004-08-18 09:10:47 51°9.092 2°37.249 8.8 106 21.1 100170 69
2004-08-18 09:10:51 51°9.092 2°37.249 8 99 21.1 100170 69
2004-08-18 09:10:56 51°9.091 2°37.249 9.4 102 21.1 100170 69
2004-08-18 09:10:59 51°9.091 2°37.249 9.1 102 21.1 100170 69
2004-08-18 09:11:05 51°9.09 2°37.249 10 98 21.1 100160 69
2004-08-18 09:11:12 51°9.09 2°37.249 10.3 96 21.1 100160 69
2004-08-18 09:11:16 51°9.09 2°37.249 10.1 102 21.1 100160 69
2004-08-18 09:11:20 51°9.089 2°37.249 10 102 21.1 100160 69
2004-08-18 09:11:25 51°9.089 2°37.249 10.5 104 21.1 100170 69